createdAt,value
2022-09-28T00:04:27.578Z,11.00
2022-09-28T00:10:08.048Z,10.90
2022-09-28T00:12:45.171Z,10.90
2022-09-28T00:15:18.238Z,10.90
2022-09-28T00:17:56.133Z,10.90
2022-09-28T00:20:33.911Z,10.90
2022-09-28T00:23:09.062Z,10.90
2022-09-28T00:25:46.144Z,10.80
2022-09-28T00:28:17.302Z,10.80
2022-09-28T00:30:52.850Z,10.70
2022-09-28T00:33:24.760Z,10.70
2022-09-28T00:36:01.718Z,10.60
2022-09-28T00:38:34.921Z,10.50
2022-09-28T00:41:10.276Z,10.50
2022-09-28T00:43:42.815Z,10.50
2022-09-28T00:46:19.812Z,10.40
2022-09-28T00:48:57.809Z,10.40
2022-09-28T00:51:31.191Z,10.40
2022-09-28T00:54:02.575Z,10.30
2022-09-28T00:56:37.454Z,10.40
2022-09-28T00:59:09.395Z,10.30
2022-09-28T01:01:42.424Z,10.30
2022-09-28T01:04:14.236Z,10.30
2022-09-28T01:06:55.805Z,10.20
2022-09-28T01:09:32.991Z,10.20
2022-09-28T01:12:07.273Z,10.30
2022-09-28T01:14:39.380Z,10.20
2022-09-28T01:17:32.617Z,10.30
2022-09-28T01:20:35.824Z,10.20
2022-09-28T01:23:37.237Z,10.20
2022-09-28T01:26:21.276Z,10.10
2022-09-28T01:28:55.617Z,10.10
2022-09-28T01:31:29.494Z,10.00
2022-09-28T01:34:14.513Z,9.90
2022-09-28T01:36:51.599Z,9.90
2022-09-28T01:39:36.199Z,9.80
2022-09-28T01:42:13.558Z,9.70
2022-09-28T01:44:45.939Z,9.60
2022-09-28T01:47:20.136Z,9.60
2022-09-28T01:50:06.585Z,9.50
2022-09-28T01:52:46.407Z,9.50
2022-09-28T01:55:33.505Z,9.30
2022-09-28T01:58:14.033Z,9.40
2022-09-28T02:00:49.094Z,9.30
2022-09-28T02:03:21.911Z,9.30
2022-09-28T02:05:55.709Z,9.20
2022-09-28T02:08:31.179Z,9.30
2022-09-28T02:11:15.901Z,9.30
2022-09-28T02:13:47.741Z,9.30
2022-09-28T02:16:31.617Z,9.30
2022-09-28T02:19:10.615Z,9.50
2022-09-28T02:21:49.001Z,9.40
2022-09-28T02:24:32.243Z,9.60
2022-09-28T02:27:07.194Z,9.70
2022-09-28T02:29:39.291Z,9.60
2022-09-28T02:32:08.949Z,9.70
2022-09-28T02:34:38.965Z,9.80
2022-09-28T02:37:10.437Z,9.80
2022-09-28T02:39:43.971Z,9.90
2022-09-28T02:42:42.784Z,9.90
2022-09-28T02:45:32.270Z,10.00
2022-09-28T02:48:19.129Z,9.90
2022-09-28T02:51:38.527Z,10.10
2022-09-28T02:54:06.733Z,10.00
2022-09-28T02:56:36.060Z,10.00
2022-09-28T02:59:35.143Z,10.10
2022-09-28T03:02:18.260Z,10.10
2022-09-28T03:05:15.316Z,10.10
2022-09-28T03:08:18.828Z,10.00
2022-09-28T03:10:58.313Z,10.10
2022-09-28T03:13:35.361Z,10.10
2022-09-28T03:16:13.513Z,10.20
2022-09-28T03:18:45.298Z,10.20
2022-09-28T03:21:21.035Z,10.30
2022-09-28T03:23:53.592Z,10.10
2022-09-28T03:26:28.243Z,10.10
2022-09-28T03:28:58.748Z,10.00
2022-09-28T03:31:29.915Z,10.10
2022-09-28T03:34:00.732Z,10.00
2022-09-28T03:36:36.210Z,10.00
2022-09-28T03:39:07.415Z,9.90
2022-09-28T03:41:40.673Z,9.80
2022-09-28T03:44:12.293Z,9.80
2022-09-28T03:46:44.821Z,9.80
2022-09-28T03:49:18.767Z,9.70
2022-09-28T03:51:48.520Z,9.70
2022-09-28T03:54:19.967Z,9.50
2022-09-28T03:56:49.751Z,9.70
2022-09-28T03:59:20.036Z,9.60
2022-09-28T04:01:53.441Z,9.70
2022-09-28T04:04:25.081Z,9.50
2022-09-28T04:06:54.946Z,9.50
2022-09-28T04:09:26.961Z,9.60
2022-09-28T04:12:06.269Z,9.60
2022-09-28T04:14:40.817Z,9.60
2022-09-28T04:17:10.899Z,9.70
2022-09-28T04:19:42.617Z,9.70
2022-09-28T04:22:16.443Z,9.70
2022-09-28T04:24:52.378Z,9.60
2022-09-28T04:27:45.366Z,9.70
2022-09-28T04:30:20.425Z,9.70
2022-09-28T04:32:53.684Z,9.80
2022-09-28T04:35:26.856Z,10.00
2022-09-28T04:37:57.156Z,10.00
2022-09-28T04:43:40.893Z,9.90
2022-09-28T04:46:12.896Z,10.00
2022-09-28T04:48:42.456Z,10.00
2022-09-28T04:51:13.139Z,10.10
2022-09-28T04:53:40.658Z,10.00
2022-09-28T04:56:15.299Z,10.00
2022-09-28T04:58:43.232Z,10.00
2022-09-28T05:01:17.874Z,10.00
2022-09-28T05:03:48.830Z,10.00
2022-09-28T05:06:18.609Z,9.90
2022-09-28T05:09:01.666Z,9.90
2022-09-28T05:58:25.837Z,10.00
2022-09-28T06:00:57.218Z,10.10
2022-09-28T06:03:24.723Z,9.90
2022-09-28T06:05:52.081Z,10.00
2022-09-28T06:08:19.312Z,10.00
2022-09-28T06:10:46.747Z,9.90
2022-09-28T06:13:13.940Z,10.10
2022-09-28T06:15:42.928Z,10.20
2022-09-28T06:18:14.132Z,10.20
2022-09-28T06:20:41.863Z,9.90
2022-09-28T06:23:13.295Z,10.00
2022-09-28T06:25:40.655Z,10.00
2022-09-28T06:28:11.876Z,10.10
2022-09-28T06:30:39.571Z,10.00
2022-09-28T06:33:09.933Z,10.00
2022-09-28T06:35:37.040Z,10.00
2022-09-28T06:38:04.794Z,10.10
2022-09-28T06:40:32.446Z,10.00
2022-09-28T06:43:09.973Z,10.00
2022-09-28T06:45:37.970Z,10.00
2022-09-28T06:48:06.261Z,10.00
2022-09-28T06:50:39.504Z,10.10
2022-09-28T06:53:09.405Z,10.20
2022-09-28T06:55:39.914Z,10.10
2022-09-28T06:58:10.035Z,10.30
2022-09-28T07:00:38.804Z,10.40
2022-09-28T07:03:08.731Z,10.30
2022-09-28T07:05:37.279Z,10.40
2022-09-28T07:08:05.084Z,10.40
2022-09-28T07:10:33.308Z,10.40
2022-09-28T07:13:05.415Z,10.50
2022-09-28T07:15:34.228Z,10.60
2022-09-28T07:18:04.083Z,10.80
2022-09-28T07:20:44.832Z,10.70
2022-09-28T07:23:19.272Z,10.80
2022-09-28T07:25:47.939Z,11.00
2022-09-28T07:28:16.915Z,11.20
2022-09-28T07:30:44.766Z,11.40
2022-09-28T07:33:14.394Z,11.50
2022-09-28T07:35:44.138Z,11.70
2022-09-28T07:38:11.429Z,11.70
2022-09-28T07:40:56.918Z,11.80
2022-09-28T07:43:23.945Z,12.00
2022-09-28T07:45:52.925Z,12.00
2022-09-28T07:48:20.270Z,12.10
2022-09-28T07:50:55.343Z,12.20
2022-09-28T07:53:24.873Z,12.30
2022-09-28T07:55:57.407Z,12.50
2022-09-28T07:58:24.401Z,12.50
2022-09-28T08:00:51.554Z,12.60
2022-09-28T08:03:21.844Z,12.70
2022-09-28T08:05:48.754Z,12.80
2022-09-28T08:08:16.033Z,12.80
2022-09-28T08:10:46.832Z,12.80
2022-09-28T08:13:15.418Z,12.80
2022-09-28T08:15:43.880Z,12.70
2022-09-28T08:18:11.129Z,12.70
2022-09-28T08:20:56.776Z,12.60
2022-09-28T08:23:23.878Z,12.50
2022-09-28T08:25:54.099Z,12.40
2022-09-28T08:28:22.727Z,12.40
2022-09-28T08:30:51.635Z,12.40
2022-09-28T08:33:21.183Z,12.40
2022-09-28T08:35:54.535Z,12.40
2022-09-28T08:38:21.631Z,12.30
2022-09-28T08:41:39.240Z,12.20
2022-09-28T08:44:15.516Z,12.30
2022-09-28T08:46:58.873Z,12.20
2022-09-28T08:49:36.466Z,12.20
2022-09-28T08:52:06.603Z,12.20
2022-09-28T08:54:58.455Z,12.10
2022-09-28T08:57:32.130Z,12.10
2022-09-28T09:00:01.813Z,12.00
2022-09-28T09:02:36.227Z,11.90
2022-09-28T09:05:06.208Z,11.90
2022-09-28T09:08:10.787Z,11.90
2022-09-28T09:10:49.582Z,12.00
2022-09-28T09:13:34.879Z,12.00
2022-09-28T09:16:20.566Z,12.10
2022-09-28T09:18:47.421Z,12.10
2022-09-28T09:21:21.032Z,12.20
2022-09-28T09:23:55.127Z,12.20
2022-09-28T09:26:38.610Z,12.20
2022-09-28T09:29:20.824Z,12.30
2022-09-28T09:32:16.752Z,12.30
2022-09-28T09:34:55.484Z,12.30
2022-09-28T09:38:06.981Z,12.30
2022-09-28T09:41:03.174Z,12.30
2022-09-28T09:43:32.899Z,12.20
2022-09-28T09:46:11.743Z,12.20
2022-09-28T09:48:54.005Z,12.30
2022-09-28T09:51:39.932Z,12.30
2022-09-28T09:54:18.899Z,12.40
2022-09-28T09:56:54.876Z,12.40
2022-09-28T09:59:42.212Z,12.40
2022-09-28T10:02:17.990Z,12.50
2022-09-28T10:04:47.792Z,12.40
2022-09-28T10:07:24.524Z,12.50
2022-09-28T10:09:56.442Z,12.50
2022-09-28T10:12:24.549Z,12.50
2022-09-28T10:14:51.523Z,12.40
2022-09-28T10:17:20.122Z,12.30
2022-09-28T10:19:47.030Z,12.30
2022-09-28T10:22:21.593Z,12.30
2022-09-28T10:24:54.993Z,12.20
2022-09-28T10:27:31.646Z,12.20
2022-09-28T10:30:08.592Z,12.10
2022-09-28T10:32:44.699Z,12.10
2022-09-28T10:35:27.584Z,12.00
2022-09-28T10:38:01.848Z,12.00
2022-09-28T10:40:43.817Z,12.00
2022-09-28T10:43:19.306Z,11.90
2022-09-28T10:45:46.743Z,12.00
2022-09-28T10:48:21.316Z,12.00
2022-09-28T10:51:08.204Z,12.00
2022-09-28T10:53:37.213Z,12.10
2022-09-28T10:56:08.901Z,12.20
2022-09-28T10:58:42.106Z,12.30
2022-09-28T11:01:12.122Z,12.60
2022-09-28T11:03:59.602Z,12.70
2022-09-28T11:06:39.846Z,12.80
2022-09-28T11:09:40.935Z,12.90
2022-09-28T11:12:16.042Z,13.00
2022-09-28T11:14:44.397Z,13.10
2022-09-28T11:17:22.811Z,13.10
2022-09-28T11:19:49.991Z,13.00
2022-09-28T11:22:22.560Z,13.00
2022-09-28T11:24:50.412Z,13.10
2022-09-28T11:27:23.496Z,13.10
2022-09-28T11:29:58.964Z,13.20
2022-09-28T11:32:30.615Z,13.30
2022-09-28T11:35:00.406Z,13.50
2022-09-28T11:37:35.091Z,13.60
2022-09-28T11:40:21.669Z,13.50
2022-09-28T11:43:13.330Z,13.60
2022-09-28T11:46:01.402Z,13.60
2022-09-28T11:48:44.044Z,13.60
2022-09-28T11:51:31.369Z,13.60
2022-09-28T11:54:36.970Z,13.70
2022-09-28T11:57:06.418Z,13.70
2022-09-28T11:59:52.581Z,14.00
2022-09-28T12:02:28.399Z,14.10
2022-09-28T12:05:20.720Z,14.20
2022-09-28T12:07:53.150Z,14.20
2022-09-28T12:10:45.287Z,14.40
2022-09-28T12:13:18.799Z,14.50
2022-09-28T12:21:47.426Z,15.40
2022-09-28T12:24:44.096Z,15.70
2022-09-28T12:27:29.778Z,15.80
2022-09-28T12:30:15.678Z,15.70
2022-09-28T12:33:17.879Z,15.60
2022-09-28T12:35:47.878Z,15.40
2022-09-28T12:38:20.634Z,15.20
2022-09-28T12:41:16.641Z,14.80
2022-09-28T12:43:56.917Z,14.30
2022-09-28T12:46:44.800Z,13.90
2022-09-28T12:50:36.692Z,13.50
2022-09-28T12:52:25.215Z,13.20
2022-09-28T12:54:57.882Z,12.90
2022-09-28T12:57:46.412Z,12.60
2022-09-28T13:00:22.634Z,12.50
2022-09-28T13:03:02.852Z,12.40
2022-09-28T13:05:57.561Z,12.40
2022-09-28T13:08:37.415Z,12.30
2022-09-28T13:11:33.461Z,12.30
2022-09-28T13:14:06.325Z,12.50
2022-09-28T13:16:40.370Z,12.50
2022-09-28T13:19:24.656Z,12.70
2022-09-28T13:22:09.462Z,13.00
2022-09-28T13:24:43.798Z,13.20
2022-09-28T13:27:15.641Z,13.30
2022-09-28T13:29:45.548Z,13.40
2022-09-28T13:32:13.299Z,13.50
2022-09-28T13:34:40.616Z,13.70
2022-09-28T13:37:21.559Z,13.90
2022-09-28T13:39:56.801Z,14.10
2022-09-28T13:42:29.532Z,14.10
2022-09-28T13:45:18.207Z,14.00
2022-09-28T13:48:16.042Z,14.10
2022-09-28T13:51:11.611Z,14.20
2022-09-28T13:53:56.350Z,14.30
2022-09-28T13:56:54.328Z,14.30
2022-09-28T13:59:24.885Z,14.10
2022-09-28T14:02:00.727Z,14.10
2022-09-28T14:04:58.069Z,14.10
2022-09-28T14:07:46.797Z,14.10
2022-09-28T14:10:25.781Z,14.00
2022-09-28T14:12:54.045Z,14.00
2022-09-28T14:15:31.985Z,14.00
2022-09-28T14:18:10.494Z,14.10
2022-09-28T14:20:39.313Z,14.10
2022-09-28T14:23:37.843Z,14.20
2022-09-28T14:26:24.383Z,14.20
2022-09-28T14:29:21.737Z,14.30
2022-09-28T14:31:48.792Z,14.20
2022-09-28T14:34:37.569Z,14.10
2022-09-28T14:37:37.097Z,14.00
2022-09-28T14:40:36.473Z,13.90
2022-09-28T14:43:44.585Z,13.90
2022-09-28T14:46:12.156Z,13.80
2022-09-28T14:48:57.239Z,13.70
2022-09-28T14:51:27.207Z,13.50
2022-09-28T14:54:01.158Z,13.40
2022-09-28T14:56:32.785Z,13.30
2022-09-28T14:59:00.470Z,13.20
2022-09-28T15:01:28.133Z,13.20
2022-09-28T15:03:57.089Z,13.10
2022-09-28T15:06:25.047Z,13.10
2022-09-28T15:08:51.904Z,13.10
2022-09-28T15:11:23.407Z,13.10
2022-09-28T15:13:55.518Z,13.30
2022-09-28T15:16:24.237Z,13.00
2022-09-28T15:19:18.907Z,13.10
2022-09-28T15:21:47.695Z,13.10
2022-09-28T15:24:34.643Z,13.00
2022-09-28T15:27:04.395Z,12.90
2022-09-28T15:29:33.243Z,12.80
2022-09-28T15:32:00.356Z,12.70
2022-09-28T15:34:50.973Z,12.60
2022-09-28T15:37:22.084Z,12.50
2022-09-28T15:39:53.583Z,12.40
2022-09-28T15:42:21.197Z,12.30
2022-09-28T15:45:07.830Z,12.20
2022-09-28T15:47:35.290Z,12.10
2022-09-28T15:50:09.144Z,12.00
2022-09-28T15:52:38.293Z,12.00
2022-09-28T15:55:26.695Z,11.90
2022-09-28T15:58:20.747Z,11.70
2022-09-28T16:00:49.717Z,11.70
2022-09-28T16:03:23.911Z,11.70
2022-09-28T16:06:08.238Z,11.60
2022-09-28T16:08:45.731Z,11.50
2022-09-28T16:11:23.425Z,11.50
2022-09-28T16:14:08.825Z,11.40
2022-09-28T16:16:46.794Z,11.50
2022-09-28T16:19:30.127Z,11.60
2022-09-28T16:21:59.186Z,11.60
2022-09-28T16:24:36.788Z,11.70
2022-09-28T16:33:42.654Z,11.80
2022-09-28T16:45:18.761Z,11.80
2022-09-28T16:54:44.104Z,11.80
2022-09-28T16:57:13.513Z,11.80
2022-09-28T16:59:40.933Z,11.80
2022-09-28T17:02:46.609Z,11.80
2022-09-28T17:05:15.934Z,11.80
2022-09-28T17:07:44.934Z,11.80
2022-09-28T17:10:29.092Z,11.80
2022-09-28T17:12:56.238Z,11.80
2022-09-28T17:15:23.683Z,11.70
2022-09-28T17:17:51.124Z,11.70
2022-09-28T17:20:22.463Z,11.70
2022-09-28T17:22:50.511Z,11.70
2022-09-28T17:25:18.240Z,11.70
2022-09-28T17:27:47.787Z,11.70
2022-09-28T17:30:16.063Z,11.70
2022-09-28T17:32:45.807Z,11.70
2022-09-28T17:35:25.448Z,11.70
2022-09-28T17:37:53.178Z,11.60
2022-09-28T17:40:24.077Z,11.60
2022-09-28T17:42:51.835Z,11.60
2022-09-28T17:45:18.667Z,11.60
2022-09-28T17:47:45.702Z,11.60
2022-09-28T17:50:28.246Z,11.60
2022-09-28T17:52:57.829Z,11.60
2022-09-28T17:55:28.736Z,11.60
2022-09-28T17:57:56.344Z,11.60
2022-09-28T18:00:27.353Z,11.60
2022-09-28T18:02:58.471Z,11.60
2022-09-28T18:05:27.783Z,11.60
2022-09-28T18:07:55.082Z,11.60
2022-09-28T18:10:24.485Z,11.60
2022-09-28T18:12:51.506Z,11.60
2022-09-28T18:15:19.265Z,11.60
2022-09-28T18:17:46.383Z,11.60
2022-09-28T18:20:14.477Z,11.60
2022-09-28T18:22:41.675Z,11.60
2022-09-28T18:25:09.305Z,11.50
2022-09-28T18:27:36.254Z,11.50
2022-09-28T18:30:04.822Z,11.50
2022-09-28T18:32:35.002Z,11.50
2022-09-28T18:35:01.858Z,11.50
2022-09-28T18:37:29.602Z,11.50
2022-09-28T18:39:57.462Z,11.50
2022-09-28T18:42:24.955Z,11.60
2022-09-28T18:44:52.200Z,11.60
2022-09-28T18:47:19.272Z,11.40
2022-09-28T18:49:46.928Z,11.60
2022-09-28T18:52:13.821Z,11.50
2022-09-28T18:54:41.522Z,11.50
2022-09-28T18:57:08.465Z,11.50
2022-09-28T18:59:35.490Z,11.50
2022-09-28T19:02:02.920Z,11.50
2022-09-28T19:04:30.207Z,11.50
2022-09-28T19:06:57.168Z,11.40
2022-09-28T19:09:26.365Z,11.40
2022-09-28T19:11:53.242Z,11.50
2022-09-28T19:14:20.206Z,11.40
2022-09-28T19:16:47.654Z,11.60
2022-09-28T19:19:16.826Z,11.40
2022-09-28T19:21:44.154Z,11.40
2022-09-28T19:24:17.064Z,11.60
2022-09-28T19:26:45.124Z,11.40
2022-09-28T19:29:12.635Z,11.50
2022-09-28T19:31:40.506Z,11.50
2022-09-28T19:34:10.469Z,11.50
2022-09-28T19:36:40.415Z,11.50
2022-09-28T19:39:07.901Z,11.40
2022-09-28T19:41:44.167Z,11.40
2022-09-28T19:44:27.816Z,11.40
2022-09-28T19:47:07.194Z,11.40
2022-09-28T19:49:38.726Z,11.50
2022-09-28T19:52:14.231Z,11.50
2022-09-28T19:54:54.489Z,11.50
2022-09-28T19:57:21.478Z,11.50
2022-09-28T19:59:52.127Z,11.50
2022-09-28T20:02:25.372Z,11.50
2022-09-28T20:04:54.127Z,11.50
2022-09-28T20:07:21.233Z,11.50
2022-09-28T20:09:48.189Z,11.50
2022-09-28T20:12:15.250Z,11.50
2022-09-28T20:14:42.482Z,11.60
2022-09-28T20:17:10.187Z,11.60
2022-09-28T20:19:37.382Z,11.60
2022-09-28T20:22:04.808Z,11.60
2022-09-28T20:24:33.111Z,11.60
2022-09-28T20:27:02.726Z,11.60
2022-09-28T20:29:32.891Z,11.60
2022-09-28T20:32:00.963Z,11.60
2022-09-28T20:34:28.936Z,11.60
2022-09-28T20:36:57.624Z,11.60
2022-09-28T20:39:28.124Z,11.60
2022-09-28T20:42:00.564Z,11.60
2022-09-28T20:44:28.267Z,11.60
2022-09-28T20:46:57.786Z,11.60
2022-09-28T20:49:24.842Z,11.60
2022-09-28T20:51:51.835Z,11.70
2022-09-28T20:54:18.786Z,11.60
2022-09-28T20:56:48.138Z,11.60
2022-09-28T20:59:15.314Z,11.60
2022-09-28T21:01:45.829Z,11.70
2022-09-28T21:04:16.727Z,11.70
2022-09-28T21:09:50.735Z,11.70
2022-09-28T21:12:19.878Z,11.70
2022-09-28T21:14:47.474Z,11.70
2022-09-28T21:17:16.354Z,11.70
2022-09-28T21:19:44.195Z,11.70
2022-09-28T21:22:14.961Z,11.80
2022-09-28T21:24:51.292Z,11.70
2022-09-28T21:27:19.955Z,11.70
2022-09-28T21:29:46.981Z,11.70
2022-09-28T21:32:14.353Z,11.70
2022-09-28T21:34:41.290Z,11.60
2022-09-28T21:37:14.360Z,11.60
2022-09-28T21:39:45.237Z,11.50
2022-09-28T21:42:13.295Z,11.50
2022-09-28T21:44:40.237Z,11.50
2022-09-28T21:47:07.441Z,11.50
2022-09-28T21:49:34.437Z,11.50
2022-09-28T21:52:02.455Z,11.50
2022-09-28T21:54:29.502Z,11.50
2022-09-28T21:56:56.741Z,11.50
2022-09-28T21:59:23.628Z,11.50
2022-09-28T22:01:50.705Z,11.40
2022-09-28T22:04:17.605Z,11.30
2022-09-28T22:06:44.930Z,11.30
2022-09-28T22:09:12.553Z,11.30
2022-09-28T22:11:39.505Z,11.30
2022-09-28T22:14:06.673Z,11.30
2022-09-28T22:16:36.038Z,11.30
2022-09-28T22:19:04.601Z,11.20
2022-09-28T22:21:33.496Z,11.30
2022-09-28T22:24:03.792Z,11.20
2022-09-28T22:26:32.086Z,11.20
2022-09-28T22:29:01.496Z,11.20
2022-09-28T22:31:44.581Z,11.10
2022-09-28T22:34:11.973Z,11.20
2022-09-28T22:36:39.099Z,11.10
2022-09-28T22:39:06.139Z,11.10
2022-09-28T22:41:33.182Z,11.10
2022-09-28T22:44:00.475Z,11.10
2022-09-28T22:46:31.119Z,11.00
2022-09-28T22:48:59.318Z,10.90
2022-09-28T22:51:28.655Z,10.90
2022-09-28T22:53:56.594Z,10.80
2022-09-28T22:56:23.877Z,10.70
2022-09-28T22:58:50.874Z,10.60
2022-09-28T23:01:20.992Z,10.60
2022-09-28T23:03:48.414Z,10.50
2022-09-28T23:06:17.493Z,10.50
2022-09-28T23:08:45.696Z,10.50
2022-09-28T23:11:12.590Z,10.50
2022-09-28T23:13:39.827Z,10.50
2022-09-28T23:16:12.731Z,10.50
2022-09-28T23:18:43.603Z,10.50
2022-09-28T23:21:13.223Z,10.50
2022-09-28T23:23:40.105Z,10.50
2022-09-28T23:26:16.074Z,10.40
2022-09-28T23:28:43.795Z,10.30
2022-09-28T23:31:16.268Z,10.30
2022-09-28T23:33:43.354Z,10.50
2022-09-28T23:36:10.333Z,10.30
2022-09-28T23:38:38.014Z,10.40
2022-09-28T23:41:05.593Z,10.20
2022-09-28T23:43:32.700Z,10.20
2022-09-28T23:45:59.771Z,10.20
2022-09-28T23:48:26.865Z,10.20
2022-09-28T23:50:53.812Z,10.30
2022-09-28T23:53:20.723Z,10.30
2022-09-28T23:55:47.769Z,10.20
2022-09-28T23:58:14.776Z,10.30
